Time;durP1;ratioP1;P1;durP2;ratioP2;P2;SDS_P1;SDS_P2;PMS_P1;PMS_P2;Temp;Humidity;BMP_temperature;BMP_pressure;BME280_temperature;BME280_humidity;BME280_pressure;Samples;Min_cycle;Max_cycle;Signal;HPM_P1;HPM_P2
2022/06/29 00:02:21;;;;;;;550.42;501.63;;;;;;;22.00;58.83;99206.81;5055012;28;20279;-75
2022/06/29 00:04:48;;;;;;;563.90;514.50;;;;;;;22.02;58.79;99207.50;5055024;28;20291;-76
2022/06/29 00:07:14;;;;;;;575.78;526.60;;;;;;;21.98;58.51;99211.59;5054831;28;20585;-77
2022/06/29 00:09:41;;;;;;;569.20;520.15;;;;;;;21.90;57.58;99211.63;5054029;28;20190;-77
2022/06/29 00:12:08;;;;;;;550.90;502.50;;;;;;;22.02;56.24;99208.34;5054358;28;20320;-76
2022/06/29 00:14:41;;;;;;;573.42;524.15;;;;;;;22.16;55.49;99201.34;5054036;28;20268;-76
2022/06/29 00:17:09;;;;;;;562.63;513.97;;;;;;;22.20;54.71;99210.91;5054783;28;20586;-75
2022/06/29 00:19:36;;;;;;;534.80;486.80;;;;;;;22.14;56.08;99203.41;5053989;28;20189;-77
2022/06/29 00:22:03;;;;;;;533.47;485.50;;;;;;;22.11;57.62;99200.13;5054444;28;20281;-75
2022/06/29 00:24:30;;;;;;;565.75;516.67;;;;;;;22.23;57.16;99210.63;5053995;28;20213;-77
2022/06/29 00:26:57;;;;;;;534.80;486.65;;;;;;;22.23;56.69;99205.13;5054175;28;20217;-77
2022/06/29 00:29:24;;;;;;;562.13;513.47;;;;;;;22.16;56.46;99204.09;5053917;28;20340;-76
2022/06/29 00:31:52;;;;;;;547.10;498.75;;;;;;;22.12;56.05;99202.72;5054276;28;20272;-76
2022/06/29 00:34:18;;;;;;;584.42;535.10;;;;;;;22.08;55.49;99204.06;5054425;28;20197;-79
2022/06/29 00:36:45;;;;;;;569.15;520.33;;;;;;;22.11;56.85;99195.50;5054143;28;20198;-75
2022/06/29 00:39:12;;;;;;;510.80;463.48;;;;;;;22.04;57.57;99195.31;5054045;28;20186;-77
2022/06/29 00:41:39;;;;;;;523.58;476.10;;;;;;;22.03;58.31;99188.16;5054066;28;20202;-77
2022/06/29 00:44:07;;;;;;;545.45;497.17;;;;;;;22.06;58.42;99201.50;5053575;28;20210;-76
2022/06/29 00:46:34;;;;;;;527.83;479.85;;;;;;;22.11;58.03;99197.38;5053542;28;20200;-75
2022/06/29 00:49:02;;;;;;;523.75;476.13;;;;;;;22.15;57.64;99190.53;5054083;28;20212;-75
2022/06/29 00:51:34;;;;;;;559.63;511.15;;;;;;;22.12;57.93;99196.38;5054253;28;20272;-75
2022/06/29 00:54:04;;;;;;;555.95;507.50;;;;;;;22.21;58.11;99193.47;5053794;28;20273;-75
2022/06/29 00:56:32;;;;;;;527.00;479.08;;;;;;;22.24;57.14;99197.75;5053646;28;20272;-76
2022/06/29 00:59:03;;;;;;;540.15;491.45;;;;;;;22.24;57.17;99193.13;5053321;28;20533;-76
2022/06/29 01:01:31;;;;;;;551.45;502.80;;;;;;;22.47;57.63;99192.38;5053618;28;20189;-76
2022/06/29 01:03:57;;;;;;;506.38;458.73;;;;;;;22.51;56.39;99195.63;5053913;28;20652;-76
2022/06/29 01:06:25;;;;;;;535.55;487.20;;;;;;;22.33;57.87;99195.84;5053917;28;20560;-77
2022/06/29 01:08:52;;;;;;;543.83;495.58;;;;;;;22.17;60.39;99189.31;5053685;28;20296;-76
2022/06/29 01:11:19;;;;;;;481.80;434.92;;;;;;;22.24;60.17;99190.38;5053128;28;20632;-76
2022/06/29 01:13:45;;;;;;;500.08;452.42;;;;;;;22.11;61.65;99195.50;5053487;28;20229;-76
2022/06/29 01:16:12;;;;;;;503.48;456.17;;;;;;;21.79;62.95;99194.50;5053379;28;20193;-76
2022/06/29 01:18:39;;;;;;;521.85;473.75;;;;;;;22.00;63.47;99187.63;5053690;28;20182;-76
2022/06/29 01:21:06;;;;;;;519.83;472.23;;;;;;;21.93;65.74;99186.59;5052880;28;20558;-76
2022/06/29 01:23:34;;;;;;;497.90;450.73;;;;;;;21.91;67.70;99191.41;5053528;28;20314;-76
2022/06/29 01:26:04;;;;;;;532.35;483.88;;;;;;;21.87;69.24;99185.44;5052403;28;20213;-76
2022/06/29 01:28:31;;;;;;;532.28;484.02;;;;;;;21.72;69.66;99184.41;5051988;28;20901;-76
2022/06/29 01:30:58;;;;;;;498.38;451.30;;;;;;;21.44;71.13;99182.84;5054068;28;20218;-75
2022/06/29 01:33:24;;;;;;;512.85;465.35;;;;;;;21.34;73.30;99182.09;5053680;28;20837;-77
2022/06/29 01:35:51;;;;;;;498.30;451.20;;;;;;;21.41;72.31;99185.03;5053237;28;20557;-76
2022/06/29 01:38:19;;;;;;;499.42;451.75;;;;;;;21.32;72.54;99178.66;5053329;28;20300;-76
2022/06/29 01:40:47;;;;;;;512.20;464.50;;;;;;;21.42;71.38;99173.94;5052210;28;20330;-77
2022/06/29 01:43:13;;;;;;;510.92;463.63;;;;;;;21.38;71.91;99167.03;5051443;28;20212;-76
2022/06/29 01:45:40;;;;;;;535.17;486.45;;;;;;;21.40;71.29;99164.13;5053372;28;20188;-77
2022/06/29 01:48:07;;;;;;;516.47;468.55;;;;;;;21.27;72.41;99158.28;5053469;28;20197;-77
2022/06/29 01:50:33;;;;;;;496.23;448.80;;;;;;;21.38;71.94;99163.44;5053363;28;20768;-78
2022/06/29 01:53:00;;;;;;;471.80;425.55;;;;;;;21.41;71.32;99155.78;5052329;28;20196;-75
2022/06/29 01:55:27;;;;;;;511.00;463.20;;;;;;;21.47;68.23;99158.88;5052177;28;20288;-76
2022/06/29 01:57:55;;;;;;;502.98;455.48;;;;;;;21.44;68.00;99149.97;5052165;28;20189;-76
2022/06/29 02:00:21;;;;;;;515.17;466.88;;;;;;;21.35;68.11;99147.38;5053032;28;21101;-77
2022/06/29 02:02:48;;;;;;;463.55;417.45;;;;;;;21.30;70.19;99138.78;5052407;28;20280;-76
2022/06/29 02:05:15;;;;;;;487.98;440.75;;;;;;;21.13;73.36;99133.28;5052242;28;20300;-76
2022/06/29 02:07:41;;;;;;;481.08;434.13;;;;;;;21.12;74.23;99128.84;5051962;28;20554;-77
2022/06/29 02:10:09;;;;;;;522.03;473.48;;;;;;;21.02;75.85;99122.66;5051834;28;20197;-77
2022/06/29 02:12:35;;;;;;;474.70;427.95;;;;;;;21.03;75.94;99125.25;5051441;28;20243;-77
2022/06/29 02:15:05;;;;;;;475.38;428.30;;;;;;;21.02;76.26;99120.78;5052248;28;20612;-77
2022/06/29 02:17:31;;;;;;;491.40;444.17;;;;;;;21.18;75.42;99119.09;5052709;28;20212;-76
2022/06/29 02:19:58;;;;;;;482.52;435.90;;;;;;;21.30;74.84;99114.13;5052505;28;20333;-76
2022/06/29 02:22:24;;;;;;;491.88;444.95;;;;;;;21.32;74.47;99112.09;5052337;28;20232;-77
2022/06/29 02:24:51;;;;;;;457.40;410.92;;;;;;;21.21;74.50;99108.69;5052119;28;20674;-77
2022/06/29 02:27:18;;;;;;;461.15;414.73;;;;;;;21.19;74.67;99098.94;5051821;28;20192;-76
2022/06/29 02:29:45;;;;;;;449.80;404.08;;;;;;;21.04;75.48;99101.47;5052375;28;20201;-76
2022/06/29 02:34:57;;;;;;;467.52;421.02;;;;;;;20.77;78.59;99099.84;5052078;28;20192;-76
2022/06/29 02:37:23;;;;;;;461.10;414.73;;;;;;;20.82;77.99;99094.72;5051813;28;20276;-77
2022/06/29 02:39:50;;;;;;;468.23;421.35;;;;;;;20.73;80.05;99093.00;5051501;28;20182;-76
2022/06/29 02:42:16;;;;;;;462.15;415.50;;;;;;;20.71;80.02;99095.03;5051218;28;20217;-76
2022/06/29 02:44:43;;;;;;;461.05;414.25;;;;;;;20.80;78.15;99102.25;5051925;28;20635;-77
2022/06/29 02:47:10;;;;;;;460.83;414.42;;;;;;;20.92;76.44;99100.06;5051725;28;20272;-76
2022/06/29 02:49:38;;;;;;;484.35;437.30;;;;;;;21.00;75.66;99109.13;5051648;28;20185;-76
2022/06/29 02:52:05;;;;;;;463.05;416.83;;;;;;;21.29;73.33;99112.44;5051350;28;20536;-76
2022/06/29 02:54:32;;;;;;;478.08;431.27;;;;;;;21.18;74.15;99108.16;5051347;28;20272;-77
2022/06/29 02:56:59;;;;;;;461.83;415.58;;;;;;;21.24;73.96;99107.47;5051082;28;20278;-76
2022/06/29 02:59:25;;;;;;;466.08;419.65;;;;;;;21.12;75.50;99109.69;5051800;28;20275;-75
2022/06/29 03:01:52;;;;;;;455.30;408.45;;;;;;;21.12;75.39;99106.94;5051503;28;20325;-76
2022/06/29 03:04:18;;;;;;;470.45;423.67;;;;;;;21.07;76.05;99108.47;5051725;28;20212;-77
2022/06/29 03:06:46;;;;;;;472.52;426.02;;;;;;;21.09;75.86;99111.91;5051493;28;20212;-77
2022/06/29 03:09:13;;;;;;;464.40;417.80;;;;;;;20.99;76.87;99106.59;5051391;28;20620;-77
2022/06/29 03:11:40;;;;;;;496.52;448.88;;;;;;;20.96;77.50;99112.38;5051618;28;20232;-77
2022/06/29 03:14:06;;;;;;;451.10;405.13;;;;;;;20.90;78.01;99111.19;5051276;28;20237;-77
2022/06/29 03:16:33;;;;;;;469.60;422.58;;;;;;;20.79;79.05;99100.53;5051851;28;20264;-77
2022/06/29 03:19:00;;;;;;;462.45;415.30;;;;;;;20.73;79.03;99103.94;5050958;28;20276;-76
2022/06/29 03:21:26;;;;;;;487.00;439.95;;;;;;;20.80;78.81;99107.72;5051382;28;20276;-77
2022/06/29 03:23:54;;;;;;;456.35;410.10;;;;;;;20.91;78.50;99112.03;5050815;28;20216;-77
2022/06/29 03:26:21;;;;;;;475.00;428.00;;;;;;;20.87;78.67;99116.13;5055718;28;20711;-77
2022/06/29 03:28:52;;;;;;;481.63;434.58;;;;;;;20.86;78.98;99114.41;5055388;28;20224;-76
2022/06/29 03:31:19;;;;;;;479.48;432.35;;;;;;;20.74;79.69;99103.78;5055617;28;20217;-76
2022/06/29 03:33:46;;;;;;;463.83;416.83;;;;;;;20.64;80.35;99102.22;5055013;28;20284;-77
2022/06/29 03:36:13;;;;;;;479.38;432.50;;;;;;;20.57;81.15;99111.06;5055277;28;20185;-77
2022/06/29 03:38:40;;;;;;;469.05;422.05;;;;;;;20.55;82.50;99114.94;5054858;28;20600;-76
2022/06/29 03:41:08;;;;;;;473.63;426.67;;;;;;;20.57;82.58;99116.53;5054681;28;20288;-76
2022/06/29 03:43:35;;;;;;;442.10;396.20;;;;;;;20.50;83.29;99117.34;5055425;28;20189;-77
2022/06/29 03:46:01;;;;;;;450.80;404.10;;;;;;;20.50;82.48;99112.72;5055108;28;20616;-77
2022/06/29 03:48:28;;;;;;;420.00;374.70;;;;;;;20.61;80.90;99103.41;5055055;28;20271;-77
2022/06/29 03:50:55;;;;;;;446.63;400.52;;;;;;;20.47;80.25;99113.06;5055303;28;20220;-75
2022/06/29 03:53:21;;;;;;;439.50;393.60;;;;;;;20.50;80.69;99107.25;5054993;28;20266;-75
2022/06/29 03:55:48;;;;;;;431.08;384.88;;;;;;;20.56;80.32;99109.38;5055369;28;20615;-76
2022/06/29 03:58:16;;;;;;;483.38;436.30;;;;;;;20.51;81.26;99117.19;5054865;28;20280;-76
2022/06/29 04:00:43;;;;;;;460.67;414.25;;;;;;;20.46;81.71;99113.22;5054765;28;20297;-76
2022/06/29 04:03:09;;;;;;;480.55;433.02;;;;;;;20.55;82.00;99109.50;5054720;28;20667;-75
2022/06/29 04:05:36;;;;;;;454.85;408.65;;;;;;;20.70;81.37;99109.75;5054174;28;20315;-77
2022/06/29 04:08:03;;;;;;;459.90;413.42;;;;;;;20.73;80.67;99103.94;5054380;28;20287;-75
2022/06/29 04:10:29;;;;;;;454.42;408.10;;;;;;;20.69;81.44;99108.03;5055034;28;20280;-76
2022/06/29 04:12:56;;;;;;;455.73;409.40;;;;;;;20.71;82.11;99098.63;5054294;28;20311;-77
2022/06/29 04:15:24;;;;;;;454.17;408.13;;;;;;;20.82;79.88;99114.72;5054191;28;20281;-77
2022/06/29 04:17:51;;;;;;;431.98;386.13;;;;;;;20.76;79.03;99111.84;5054877;28;20205;-77
2022/06/29 04:23:01;;;;;;;436.15;390.60;;;;;;;20.63;77.75;99122.38;5053331;28;20298;-76
2022/06/29 04:25:28;;;;;;;436.98;395.00;;;;;;;20.68;77.77;99122.75;5054045;28;20225;-78
2022/06/29 04:27:54;;;;;;;4.17;2.20;;;;;;;20.69;77.23;99125.31;5054712;28;20244;-76
2022/06/29 04:30:21;;;;;;;16.57;5.23;;;;;;;20.76;77.85;99114.56;5054053;28;20515;-76
2022/06/29 04:32:49;;;;;;;4.97;2.70;;;;;;;20.82;77.20;99117.47;5053040;28;21028;-78
2022/06/29 04:35:16;;;;;;;3.40;2.17;;;;;;;20.91;75.37;99118.34;5034382;28;20492;-76
2022/06/29 04:37:42;;;;;;;3.20;2.23;;;;;;;20.80;77.54;99113.19;5041117;28;20434;-76
2022/06/29 04:40:10;;;;;;;4.73;2.93;;;;;;;20.76;78.70;99120.88;5054474;28;20905;-77
2022/06/29 04:42:37;;;;;;;5.10;2.30;;;;;;;20.66;78.31;99113.84;5054216;28;20511;-76
2022/06/29 04:45:04;;;;;;;6.30;2.77;;;;;;;20.61;79.11;99115.19;5054019;28;20555;-77
2022/06/29 04:47:31;;;;;;;4.63;2.93;;;;;;;20.73;78.88;99112.16;5053743;28;20531;-76
2022/06/29 04:49:59;;;;;;;7.20;3.90;;;;;;;20.89;78.02;99112.19;5054069;28;20898;-75
2022/06/29 04:52:26;;;;;;;3.70;2.97;;;;;;;20.87;78.34;99108.78;5053828;28;20523;-76
2022/06/29 04:54:53;;;;;;;9.93;4.80;;;;;;;20.85;77.58;99115.44;5053637;28;20440;-77
2022/06/29 04:57:19;;;;;;;3.60;2.87;;;;;;;20.75;76.37;99110.09;5053790;28;20822;-76
2022/06/29 04:59:46;;;;;;;7.30;3.93;;;;;;;20.98;74.90;99113.06;5054012;28;20499;-76
2022/06/29 05:02:12;;;;;;;8.67;4.10;;;;;;;21.11;74.23;99109.84;5053528;28;20511;-76
2022/06/29 05:04:39;;;;;;;6.83;3.47;;;;;;;21.14;72.96;99109.50;5053646;28;20879;-77
2022/06/29 05:07:07;;;;;;;9.10;4.10;;;;;;;21.22;74.16;99110.38;5053226;28;20875;-77
2022/06/29 05:09:34;;;;;;;7.73;3.23;;;;;;;21.33;74.45;99102.88;5053446;28;20514;-76
2022/06/29 05:12:00;;;;;;;5.07;3.40;;;;;;;21.52;72.99;99098.97;5053184;28;20534;-77
2022/06/29 05:14:27;;;;;;;5.53;3.87;;;;;;;21.42;74.34;99105.47;5053608;28;20447;-77
2022/06/29 05:16:54;;;;;;;5.80;3.73;;;;;;;21.38;74.70;99101.31;5053576;28;20431;-77
2022/06/29 05:19:20;;;;;;;7.13;3.80;;;;;;;21.49;73.77;99097.41;5053323;28;20447;-77
2022/06/29 05:21:47;;;;;;;5.63;3.50;;;;;;;21.37;75.07;99102.34;5053308;28;20874;-77
2022/06/29 05:24:16;;;;;;;10.10;6.73;;;;;;;21.60;74.43;99098.97;5052970;28;20569;-77
2022/06/29 05:26:43;;;;;;;9.47;3.70;;;;;;;21.77;73.72;99100.63;5053093;28;20925;-77
2022/06/29 05:29:09;;;;;;;5.43;4.03;;;;;;;21.94;71.59;99095.16;5053257;28;20448;-78
2022/06/29 05:31:36;;;;;;;5.13;3.70;;;;;;;21.99;71.84;99090.00;5052695;28;20626;-77
2022/06/29 05:34:02;;;;;;;7.70;4.23;;;;;;;21.93;71.42;99090.69;5053324;28;20911;-76
2022/06/29 05:36:29;;;;;;;4.73;3.63;;;;;;;21.98;70.87;99096.50;5052511;28;20424;-76
2022/06/29 05:38:56;;;;;;;10.60;3.53;;;;;;;21.98;71.72;99101.97;5052710;28;20914;-77
2022/06/29 05:41:24;;;;;;;11.13;4.40;;;;;;;22.12;70.21;99097.69;5052976;28;20969;-77
2022/06/29 05:43:51;;;;;;;5.60;3.70;;;;;;;22.32;68.18;99101.75;5052839;28;20918;-76
2022/06/29 05:46:18;;;;;;;5.73;4.30;;;;;;;22.40;67.72;99106.34;5052639;28;20826;-76
2022/06/29 05:48:45;;;;;;;467.00;437.63;;;;;;;22.50;65.59;99104.25;5051681;28;20424;-75
2022/06/29 05:51:12;;;;;;;477.27;436.35;;;;;;;22.55;64.41;99101.84;5052729;28;20479;-75
2022/06/29 05:53:38;;;;;;;548.75;500.00;;;;;;;22.60;64.68;99104.03;5052195;28;20221;-78
2022/06/29 05:56:06;;;;;;;531.03;482.75;;;;;;;22.49;64.08;99102.53;5052069;28;20224;-77
2022/06/29 05:58:34;;;;;;;571.78;522.58;;;;;;;22.49;65.15;99097.91;5052208;28;20659;-76
2022/06/29 06:01:00;;;;;;;550.03;501.50;;;;;;;22.32;65.81;99100.88;5051516;28;20268;-76
2022/06/29 06:03:27;;;;;;;524.03;475.60;;;;;;;22.55;64.70;99101.84;5052380;28;20284;-76
2022/06/29 06:05:55;;;;;;;547.85;498.85;;;;;;;22.97;62.45;99103.31;5052088;28;20205;-76
2022/06/29 06:08:21;;;;;;;538.80;489.25;;;;;;;22.68;62.13;99096.63;5052302;28;20233;-76
2022/06/29 06:10:48;;;;;;;565.00;515.10;;;;;;;22.67;63.67;99105.88;5051777;28;20655;-76
2022/06/29 06:13:15;;;;;;;514.20;466.35;;;;;;;22.93;62.38;99098.38;5051867;28;20770;-77
2022/06/29 06:15:43;;;;;;;507.23;459.58;;;;;;;22.91;61.53;99106.81;5052518;28;20610;-76
2022/06/29 06:18:09;;;;;;;546.72;498.48;;;;;;;23.20;60.44;99100.63;5052512;28;20613;-77
2022/06/29 06:20:36;;;;;;;513.35;465.95;;;;;;;23.17;59.09;99109.22;5052709;28;20272;-76
2022/06/29 06:23:03;;;;;;;549.40;499.80;;;;;;;22.94;59.91;99109.19;5052377;28;20279;-77
2022/06/29 06:25:29;;;;;;;539.30;490.70;;;;;;;23.09;59.65;99115.63;5052165;28;20296;-79
2022/06/29 06:27:56;;;;;;;562.37;513.50;;;;;;;23.06;59.91;99118.72;5052277;28;20264;-78
2022/06/29 06:30:24;;;;;;;585.60;536.20;;;;;;;22.86;61.15;99117.44;5052069;28;20475;-78
2022/06/29 06:32:52;;;;;;;528.10;479.90;;;;;;;22.89;60.79;99115.22;5051819;28;20517;-79
2022/06/29 06:35:19;;;;;;;563.23;513.93;;;;;;;22.82;61.82;99119.72;5051911;28;20192;-80
2022/06/29 06:37:47;;;;;;;526.60;478.20;;;;;;;23.17;60.42;99116.63;5051982;28;20454;-82
2022/06/29 06:42:58;;;;;;;542.47;494.23;;;;;;;23.35;59.12;99127.31;5051902;28;20534;-78
2022/06/29 06:45:24;;;;;;;4.37;3.20;;;;;;;23.47;59.10;99134.94;5052479;28;20229;-81
2022/06/29 06:47:53;;;;;;;6.60;2.67;;;;;;;23.75;56.71;99130.81;5051534;28;20486;-80
2022/06/29 06:50:20;;;;;;;2.77;2.17;;;;;;;23.77;56.12;99132.31;5052130;28;20436;-81
2022/06/29 06:52:47;;;;;;;4.03;2.27;;;;;;;23.61;57.29;99132.44;5051483;28;20446;-80
2022/06/29 06:55:14;;;;;;;5.87;2.80;;;;;;;23.88;56.74;99133.78;5051942;28;20424;-81
2022/06/29 06:57:41;;;;;;;9.30;2.90;;;;;;;24.16;56.34;99133.16;5051946;28;20890;-81
2022/06/29 07:00:09;;;;;;;5.90;2.80;;;;;;;24.23;55.71;99132.19;5051526;28;20439;-81
2022/06/29 07:02:36;;;;;;;7.57;2.63;;;;;;;23.73;56.81;99130.94;5051737;28;20768;-82
2022/06/29 07:05:05;;;;;;;7.93;2.97;;;;;;;23.96;56.69;99133.69;5051298;28;20476;-82
2022/06/29 07:07:32;;;;;;;3.70;2.30;;;;;;;24.32;54.90;99124.72;5051793;28;20511;-82
2022/06/29 07:09:58;;;;;;;9.23;2.60;;;;;;;24.39;54.46;99124.81;5050980;28;20463;-81
2022/06/29 07:12:26;;;;;;;5.67;3.13;;;;;;;24.38;54.37;99136.84;5049852;28;21060;-81
2022/06/29 07:14:52;;;;;;;5.47;2.87;;;;;;;24.39;54.65;99131.16;5051266;28;20427;-81
2022/06/29 07:17:19;;;;;;;9.40;3.40;;;;;;;24.61;53.72;99131.28;5051728;28;20432;-80
2022/06/29 07:19:46;;;;;;;3.17;2.50;;;;;;;24.77;52.31;99136.59;5051543;28;20462;-81
2022/06/29 07:22:13;;;;;;;2.33;2.00;;;;;;;24.69;52.80;99133.94;5050973;28;20542;-81
2022/06/29 07:24:40;;;;;;;4.70;2.60;;;;;;;25.11;51.46;99129.59;5051034;28;20440;-82
2022/06/29 07:27:07;;;;;;;5.20;3.00;;;;;;;24.87;51.59;99133.53;5050101;28;20541;-81
2022/06/29 07:29:33;;;;;;;6.50;2.40;;;;;;;24.43;52.41;99127.00;5031439;28;20527;-79
2022/06/29 07:32:00;;;;;;;2.80;2.23;;;;;;;24.37;52.73;99133.25;5030569;28;20527;-80
2022/06/29 07:34:27;;;;;;;3.40;2.60;;;;;;;24.61;52.02;99123.03;5030736;28;20516;-80
2022/06/29 07:36:53;;;;;;;3.30;3.00;;;;;;;24.53;52.21;99123.97;5033440;28;20433;-80
2022/06/29 07:39:21;;;;;;;4.10;2.40;;;;;;;24.75;51.17;99127.66;5050577;28;20451;-81
2022/06/29 07:41:48;;;;;;;4.03;2.50;;;;;;;24.69;51.69;99134.81;5050701;28;20518;-81
2022/06/29 07:44:15;;;;;;;2.50;2.17;;;;;;;24.57;51.53;99127.22;5051252;28;20892;-81
2022/06/29 07:46:41;;;;;;;3.20;2.17;;;;;;;24.20;52.87;99129.84;5050641;28;20512;-81
2022/06/29 07:49:08;;;;;;;2.80;2.20;;;;;;;24.19;53.29;99121.75;5049804;28;20455;-80
2022/06/29 07:51:35;;;;;;;3.10;2.53;;;;;;;23.63;55.49;99125.72;5049517;28;20424;-78
2022/06/29 07:54:02;;;;;;;2.80;2.50;;;;;;;23.64;55.62;99126.56;5050369;28;20947;-79
2022/06/29 07:56:30;;;;;;;4.53;2.43;;;;;;;23.93;54.29;99121.16;5050843;28;20844;-79
2022/06/29 07:58:57;;;;;;;5.87;2.43;;;;;;;24.12;54.17;99128.00;5050827;28;20870;-79
2022/06/29 08:01:24;;;;;;;3.27;2.17;;;;;;;24.39;52.83;99116.56;5041119;28;20771;-80
2022/06/29 08:03:50;;;;;;;4.13;2.80;;;;;;;24.10;53.36;99112.75;5050673;28;20431;-77
2022/06/29 08:06:17;;;;;;;3.40;2.33;;;;;;;24.18;53.22;99115.41;5049658;28;20957;-78
2022/06/29 08:08:43;;;;;;;2.57;2.30;;;;;;;24.42;52.68;99113.41;5050470;28;20909;-79
2022/06/29 08:11:10;;;;;;;5.40;2.80;;;;;;;24.90;51.29;99111.97;5048309;28;20790;-78
2022/06/29 08:13:39;;;;;;;3.07;2.63;;;;;;;25.27;49.31;99128.53;5052820;28;20885;-79
2022/06/29 08:16:06;;;;;;;4.43;2.03;;;;;;;25.33;49.25;99120.31;5051777;28;20443;-78
2022/06/29 08:18:33;;;;;;;6.93;2.20;;;;;;;25.61;48.89;99110.41;5053901;28;20540;-80
2022/06/29 08:21:00;;;;;;;3.50;2.67;;;;;;;25.60;48.39;99123.34;5051905;28;20453;-78
2022/06/29 08:23:26;;;;;;;3.10;2.47;;;;;;;25.70;48.10;99117.50;5051080;28;20585;-81
2022/06/29 08:25:53;;;;;;;3.10;2.30;;;;;;;26.08;47.22;99119.94;5051770;28;20478;-78
2022/06/29 08:28:20;;;;;;;5.63;2.30;;;;;;;25.80;47.46;99118.84;5053000;28;20427;-78
2022/06/29 08:30:48;;;;;;;4.97;2.30;;;;;;;25.80;47.98;99117.97;5052958;28;20447;-79
2022/06/29 08:33:14;;;;;;;6.17;2.43;;;;;;;25.95;47.47;99128.97;5052492;28;20443;-79
2022/06/29 08:35:42;;;;;;;3.63;2.20;;;;;;;25.79;47.99;99124.56;5053669;28;20932;-78
2022/06/29 08:38:08;;;;;;;5.10;2.73;;;;;;;26.35;46.56;99120.97;5053275;28;20523;-79
2022/06/29 08:40:44;;;;;;;5.33;2.63;;;;;;;26.31;46.84;99122.44;5053221;28;20873;-78
2022/06/29 08:43:12;;;;;;;3.60;3.30;;;;;;;26.21;47.84;99129.16;5053209;28;20458;-80
2022/06/29 08:45:42;;;;;;;8.13;3.40;;;;;;;26.56;46.52;99117.31;5053011;28;20479;-79
2022/06/29 08:48:10;;;;;;;3.50;2.73;;;;;;;26.68;46.08;99118.41;5053955;28;20455;-79
2022/06/29 08:50:38;;;;;;;3.77;2.40;;;;;;;26.49;46.39;99119.16;5053064;28;20475;-80
2022/06/29 08:53:07;;;;;;;5.77;3.70;;;;;;;26.58;46.67;99115.19;5053007;28;20942;-81
2022/06/29 08:55:37;;;;;;;5.20;3.10;;;;;;;27.00;45.41;99121.50;5053276;28;20458;-81
2022/06/29 08:58:06;;;;;;;4.20;2.83;;;;;;;27.43;44.76;99119.34;5050553;28;20950;-78
2022/06/29 09:00:36;;;;;;;4.30;2.77;;;;;;;27.76;43.69;99128.72;5052036;28;20457;-77
2022/06/29 09:03:04;;;;;;;5.47;3.30;;;;;;;27.77;43.15;99131.28;5051870;28;20636;-79
2022/06/29 09:05:33;;;;;;;3.67;2.50;;;;;;;27.55;43.81;99130.63;5050961;28;20809;-78
2022/06/29 09:08:00;;;;;;;6.80;3.73;;;;;;;27.55;43.98;99127.88;5050974;28;20482;-80
2022/06/29 09:10:30;;;;;;;3.53;3.13;;;;;;;27.58;43.60;99132.13;5052985;28;20984;-76
2022/06/29 09:12:58;;;;;;;5.50;2.73;;;;;;;27.95;42.82;99127.94;5052497;28;21043;-79
2022/06/29 09:15:32;;;;;;;4.40;2.80;;;;;;;28.32;41.94;99124.69;5052676;28;20447;-79
2022/06/29 09:17:58;;;;;;;5.40;2.97;;;;;;;28.39;41.02;99129.13;5051778;28;20808;-80
2022/06/29 09:20:25;;;;;;;6.13;2.80;;;;;;;28.15;40.30;99130.66;5053004;28;20993;-79
2022/06/29 09:22:54;;;;;;;3.50;2.50;;;;;;;27.08;43.49;99126.88;5051497;28;20447;-79
2022/06/29 09:25:22;;;;;;;3.57;2.50;;;;;;;27.23;43.61;99130.34;5051234;28;20439;-80
2022/06/29 09:27:49;;;;;;;3.80;2.50;;;;;;;27.16;43.79;99128.63;5052186;28;20476;-77
2022/06/29 09:30:26;;;;;;;4.23;2.77;;;;;;;27.67;42.59;99133.63;5051421;28;20452;-78
2022/06/29 09:33:00;;;;;;;4.20;2.80;;;;;;;27.60;42.83;99136.38;5052320;28;20788;-80
2022/06/29 09:35:26;;;;;;;5.20;2.47;;;;;;;27.18;43.98;99126.47;5049462;28;20450;-77
2022/06/29 09:37:54;;;;;;;4.20;2.60;;;;;;;27.45;43.29;99127.41;5052983;28;20535;-79
2022/06/29 09:40:21;;;;;;;6.07;3.03;;;;;;;27.72;42.97;99122.75;5052021;28;20459;-78
2022/06/29 09:42:48;;;;;;;4.80;2.93;;;;;;;27.11;44.29;99128.38;5052225;28;20526;-79
2022/06/29 09:45:15;;;;;;;7.57;2.90;;;;;;;27.18;44.25;99126.47;5052244;28;20542;-80
2022/06/29 09:47:43;;;;;;;3.53;2.37;;;;;;;27.38;43.67;99126.56;5051981;28;20786;-80
2022/06/29 09:50:10;;;;;;;6.33;2.47;;;;;;;27.66;43.07;99120.88;5051899;28;20463;-80
2022/06/29 09:52:39;;;;;;;5.77;3.90;;;;;;;28.13;41.37;99127.28;5051438;28;20447;-79
2022/06/29 09:55:10;;;;;;;4.07;2.50;;;;;;;27.98;41.88;99127.50;5052217;28;20463;-78
2022/06/29 09:57:39;;;;;;;3.30;2.10;;;;;;;28.09;41.09;99131.53;5050566;28;20440;-78
2022/06/29 10:02:52;;;;;;;4.67;2.90;;;;;;;29.72;38.14;99125.81;5051232;28;20992;-79
2022/06/29 10:05:21;;;;;;;5.10;4.00;;;;;;;29.81;38.13;99129.16;5051262;28;20436;-80
2022/06/29 10:07:49;;;;;;;4.77;2.37;;;;;;;29.51;38.52;99128.94;5050996;28;20480;-79
2022/06/29 10:10:19;;;;;;;4.33;2.47;;;;;;;28.71;40.17;99114.59;5051707;28;20993;-78
2022/06/29 10:16:02;;;;;;;4.07;2.90;;;;;;;27.81;42.70;99127.03;5049839;28;20530;-80
2022/06/29 10:18:46;;;;;;;3.73;3.00;;;;;;;28.50;41.62;99124.88;5049388;28;20428;-79
2022/06/29 10:21:15;;;;;;;4.20;2.77;;;;;;;28.78;41.23;99118.19;5050065;28;20448;-80
2022/06/29 10:23:47;;;;;;;6.70;2.50;;;;;;;28.60;40.59;99121.66;5050977;28;20451;-81
2022/06/29 10:26:43;;;;;;;4.30;2.90;;;;;;;29.15;39.98;99121.25;5050234;28;20566;-79
2022/06/29 10:29:34;;;;;;;9.07;2.90;;;;;;;28.61;40.55;99126.16;5051484;28;20921;-80
2022/06/29 10:32:17;;;;;;;3.80;2.23;;;;;;;28.27;40.97;99119.81;5048168;28;20459;-79
2022/06/29 10:37:30;;;;;;;3.97;1.97;;;;;;;28.98;40.06;99109.78;5051399;28;20403;-80
2022/06/29 10:40:00;;;;;;;6.37;2.47;;;;;;;29.09;40.30;99123.00;5051372;28;20444;-80
2022/06/29 10:45:37;;;;;;;5.37;2.70;;;;;;;29.36;39.28;99118.13;5051484;28;20424;-80
2022/06/29 10:48:14;;;;;;;4.30;2.50;;;;;;;29.08;40.26;99102.75;5051718;28;20467;-80
2022/06/29 10:50:42;;;;;;;3.00;2.50;;;;;;;28.70;40.49;99102.69;5050763;28;20471;-80
2022/06/29 10:53:10;;;;;;;5.70;2.87;;;;;;;28.51;41.35;99098.88;5051019;28;20444;-80
2022/06/29 10:55:39;;;;;;;4.40;2.47;;;;;;;29.08;38.69;99099.09;5050667;28;20738;-80
2022/06/29 10:58:07;;;;;;;5.87;2.50;;;;;;;28.59;39.71;99086.75;5051235;28;20808;-80
2022/06/29 11:00:35;;;;;;;2.97;2.67;;;;;;;28.78;39.67;99082.19;5051425;28;20436;-79
2022/06/29 11:03:13;;;;;;;7.90;3.30;;;;;;;28.87;39.43;99086.41;5050958;28;20423;-80
2022/06/29 11:13:57;;;;;;;8.37;3.20;;;;;;;28.49;39.09;99073.34;5033306;28;20467;-79
2022/06/29 11:16:29;;;;;;;2.60;2.40;;;;;;;28.57;38.81;99075.88;5050685;28;20432;-81
2022/06/29 11:18:57;;;;;;;5.63;2.47;;;;;;;28.51;39.05;99070.34;5051151;28;20556;-80
2022/06/29 11:21:24;;;;;;;4.00;2.50;;;;;;;28.55;38.96;99066.09;5050785;28;20432;-80
2022/06/29 11:23:56;;;;;;;6.90;2.80;;;;;;;28.83;38.43;99063.84;5051225;28;20428;-79
2022/06/29 11:26:24;;;;;;;3.63;2.60;;;;;;;28.64;38.46;99065.63;5050996;28;20460;-79
2022/06/29 11:28:52;;;;;;;3.97;2.27;;;;;;;28.26;37.66;99057.19;5051192;28;20953;-79
2022/06/29 11:31:20;;;;;;;2.20;2.00;;;;;;;28.01;37.13;99065.34;5051075;28;20502;-79
2022/06/29 11:33:49;;;;;;;3.00;2.40;;;;;;;27.93;38.07;99060.88;5050813;28;20885;-80
2022/06/29 11:36:19;;;;;;;3.83;1.97;;;;;;;27.67;36.96;99056.19;5051001;28;20440;-80
2022/06/29 11:38:47;;;;;;;3.30;3.00;;;;;;;27.62;38.86;99055.97;5051205;28;20507;-80
2022/06/29 11:41:18;;;;;;;3.63;2.73;;;;;;;27.62;38.72;99050.44;5050246;28;20472;-79
2022/06/29 11:43:46;;;;;;;6.83;2.73;;;;;;;27.66;38.83;99051.72;5050840;28;20428;-79
2022/06/29 11:46:21;;;;;;;5.30;2.47;;;;;;;27.74;39.07;99045.97;5052959;28;20427;-80
2022/06/29 11:51:35;;;;;;;3.07;2.47;;;;;;;27.82;40.18;99043.00;5054353;28;20569;-80
2022/06/29 11:54:06;;;;;;;3.60;2.67;;;;;;;27.96;39.95;99046.63;5054431;28;20466;-81